Latest Weather Observations for Cape Wessel

IDD60801

Issued at 5:35 pm CST Thursday 2 October 2014 (issued every 30 minutes, with the page automatically refreshed every 10 minutes)

About weather observations | Map of weather stations | Latest weather observations for NT | Other Formats
Station Details ID: 200786 Name: CAPE WESSEL Lat: -11.00 Lon: 136.76 Height: 18.0 m
Data from the previous 72 hours. | See also: Recent months for locations in Northern Territory
Date/Time
CST
Temp
°C
App
Temp
°C
Dew
Point
Rel
Hum
%
Delta-T
°C
Wind Press
QNH
hPa
Press
MSL
hPa
Rain
since 9 am
mm
Dir
 
Spd
km/h
Gust
km/h
Spd
kts
Gust
kts
02/05:30pm 27.0 26.9 19.9 65 4.6 SE 20 26 11 14 1010.5 - 0.0
02/05:00pm 28.2 28.4 20.5 63 5.1 SE 20 24 11 13 1010.3 - 0.0
02/04:30pm 28.8 29.1 20.3 60 5.6 SE 19 24 10 13 1010.2 - 0.0
02/04:00pm 29.0 29.0 20.2 59 5.8 ESE 20 24 11 13 1010.4 - 0.0
02/03:30pm 30.0 30.2 20.5 56 6.3 ESE 20 26 11 14 1010.5 - 0.0
02/03:00pm 30.0 29.8 20.5 56 6.3 ESE 22 28 12 15 1010.7 1010.5 0.0
02/02:30pm 30.5 30.4 20.7 55 6.5 ESE 22 28 12 15 1010.9 - 0.0
02/02:00pm 30.7 31.4 21.2 57 6.4 ESE 19 24 10 13 1011.1 - 0.0
02/01:30pm 31.0 31.3 21.5 57 6.4 ESE 22 30 12 16 1011.4 - 0.0
02/01:00pm 30.6 30.3 21.1 57 6.4 E 24 30 13 16 1012.0 - 0.0
02/12:30pm 30.1 30.9 20.6 56 6.3 ENE 17 20 9 11 1012.0 - 0.0
02/12:00pm 30.8 32.5 21.6 58 6.2 NE 15 19 8 10 1012.3 1012.1 0.0
02/11:30am 30.8 31.8 21.0 56 6.6 ENE 17 20 9 11 1013.0 - 0.0
02/11:00am 30.3 31.2 20.8 56 6.3 ENE 17 24 9 13 1013.5 - 0.0
02/10:30am 30.5 30.9 21.0 57 6.3 E 20 26 11 14 1013.9 - 0.0
02/10:00am 29.9 29.9 21.0 59 5.9 E 22 28 12 15 1014.0 - 0.0
02/09:30am 29.1 28.9 20.5 59 5.7 E 22 26 12 14 1014.0 - 0.0
02/09:00am 29.2 29.7 21.2 62 5.3 E 20 26 11 14 1014.0 1013.8 0.0
02/08:30am 28.6 28.7 21.1 64 5.0 E 22 30 12 16 1013.9 - 0.0
02/08:00am 27.5 26.6 20.6 66 4.5 E 26 32 14 17 1013.8 - 0.0
02/07:30am 26.6 25.6 20.4 69 4.1 E 26 33 14 18 1013.6 - 0.0
02/07:00am 25.7 25.0 20.3 72 3.5 E 24 32 13 17 1013.1 - 0.0
02/06:30am 25.0 24.0 19.6 72 3.5 E 24 30 13 16 1012.7 - 0.0
02/06:00am 24.7 23.5 19.3 72 3.5 E 24 30 13 16 1012.6 1012.4 0.0
02/05:30am 24.7 23.9 19.3 72 3.5 E 22 28 12 15 1012.3 - 0.0
02/05:00am 24.6 23.5 19.4 73 3.3 E 24 30 13 16 1012.1 - 0.0
02/04:30am 24.4 23.7 19.5 74 3.1 E 22 26 12 14 1011.8 - 0.0
02/04:00am 24.4 23.6 19.2 73 3.3 ESE 22 26 12 14 1011.5 - 0.0
02/03:30am 24.5 23.2 19.1 72 3.4 ESE 24 28 13 15 1011.5 - 0.0
02/03:00am 24.6 23.4 19.2 72 3.5 E 24 28 13 15 1011.7 1011.5 0.0
02/02:30am 24.5 23.2 19.1 72 3.4 E 24 30 13 16 1011.8 - 0.0
02/02:00am 24.5 23.5 18.9 71 3.6 E 22 30 12 16 1011.9 - 0.0
02/01:30am 24.5 23.9 18.9 71 3.6 ESE 20 26 11 14 1012.2 - 0.0
02/01:00am 24.5 23.5 18.9 71 3.6 ESE 22 28 12 15 1012.3 - 0.0
02/12:30am 24.6 23.7 19.0 71 3.6 ESE 22 28 12 15 1012.5 - 0.0
02/12:00am 24.7 23.8 19.1 71 3.6 ESE 22 28 12 15 1012.9 1012.7 0.0
 
Date/Time
CST
Temp
°C
App
Temp
°C
Dew
Point
Rel
Hum
%
Delta-T
°C
Wind Press
QNH
hPa
Press
MSL
hPa
Rain
since 9 am
mm
Dir
 
Spd
km/h
Gust
km/h
Spd
kts
Gust
kts
01/11:30pm 24.7 23.2 18.6 69 3.9 ESE 24 28 13 15 1013.2 - 0.0
01/11:00pm 24.7 24.1 18.9 70 3.7 ESE 20 28 11 15 1013.2 - 0.0
01/10:30pm 24.8 23.3 18.5 68 4.0 ESE 24 28 13 15 1013.3 - 0.0
01/10:00pm 24.9 23.4 18.6 68 4.0 ESE 24 28 13 15 1013.0 - 0.0
01/09:30pm 24.9 23.0 18.6 68 4.0 ESE 26 32 14 17 1012.7 - 0.0
01/09:00pm 25.0 22.8 18.7 68 4.0 ESE 28 33 15 18 1012.7 1012.5 0.0
01/08:30pm 25.1 23.0 19.0 69 3.9 ESE 28 33 15 18 1012.4 - 0.0
01/08:00pm 25.1 23.3 18.8 68 4.0 ESE 26 32 14 17 1012.3 - 0.0
01/07:30pm 25.2 23.0 18.6 67 4.2 ESE 28 33 15 18 1012.0 - 0.0
01/07:00pm 25.3 23.4 18.5 66 4.3 ESE 26 33 14 18 1011.6 - 0.0
01/06:30pm 25.4 23.4 18.3 65 4.5 ESE 26 32 14 17 1011.5 - 0.0
01/06:00pm 25.9 24.2 18.1 62 4.9 ESE 24 30 13 16 1011.3 1011.1 0.0
01/05:30pm 27.1 25.8 18.1 58 5.7 ESE 22 28 12 15 1011.1 - 0.0
01/05:00pm 27.9 26.5 18.0 55 6.3 ESE 22 28 12 15 1010.9 - 0.0
01/04:30pm 28.8 27.3 18.6 54 6.6 ESE 24 28 13 15 1010.8 - 0.0
01/04:00pm 29.4 27.4 18.2 51 7.2 ESE 26 32 14 17 1010.7 - 0.0
01/03:30pm 29.9 28.5 18.7 51 7.2 ESE 24 30 13 16 1010.8 - 0.0
01/03:00pm 30.2 28.5 18.9 50 7.3 ESE 26 33 14 18 1010.9 1010.7 0.0
01/02:30pm 30.2 28.3 18.6 49 7.5 ESE 26 33 14 18 1011.2 - 0.0
01/02:00pm 31.1 30.0 19.4 49 7.7 ESE 24 30 13 16 1011.4 - 0.0
01/01:30pm 31.3 30.0 19.9 50 7.5 ESE 26 32 14 17 1011.8 - 0.0
01/01:00pm 31.7 30.2 20.3 50 7.6 E 28 33 15 18 1012.2 - 0.0
01/12:30pm 31.1 29.0 19.8 51 7.4 E 30 37 16 20 1012.8 - 0.0
01/12:00pm 31.0 28.9 19.7 51 7.4 E 30 37 16 20 1013.4 1013.2 0.0
01/11:30am 30.7 28.2 19.7 52 7.2 E 32 41 17 22 1013.8 - 0.0
01/11:00am 31.0 29.6 21.2 56 6.6 E 30 35 16 19 1014.0 - 0.0
01/10:30am 30.0 28.6 21.1 59 5.9 E 30 39 16 21 1014.3 - 0.0
01/10:00am 29.7 28.3 20.5 57 6.1 E 28 37 15 20 1014.4 - 0.0
01/09:30am 29.4 27.4 20.8 60 5.7 E 32 39 17 21 1014.4 - 0.0
01/09:00am 28.8 27.2 20.8 62 5.3 E 30 37 16 20 1014.5 1014.3 0.2
01/08:30am 27.5 25.7 20.3 65 4.7 E 30 39 16 21 1014.4 - 0.2
01/08:00am 27.5 25.3 20.8 67 4.4 E 33 43 18 23 1014.1 - 0.2
01/07:30am 26.8 25.6 21.5 72 3.5 E 30 39 16 21 1013.6 - 0.2
01/07:00am 25.4 24.9 21.5 79 2.6 E 26 33 14 18 1013.3 - 0.2
01/06:30am 24.2 23.1 20.3 79 2.5 ENE 26 35 14 19 1013.0 - 0.2
01/06:13am 23.7 20.1 19.4 77 2.8 E 37 56 20 30 1012.9 - 0.0
01/06:02am 24.7 23.1 20.8 79 2.6 ESE 30 57 16 31 1012.8 - 0.0
01/06:00am 24.8 23.6 20.9 79 2.6 ESE 28 39 15 21 1012.7 1012.5 0.0
01/05:30am 24.5 22.2 20.6 79 2.5 E 33 41 18 22 1012.5 - 0.0
01/05:00am 23.6 20.6 19.9 80 2.4 ESE 35 46 19 25 1012.4 - 0.0
01/04:43am 25.1 23.3 20.4 75 3.1 ESE 30 50 16 27 1012.1 - 0.0
01/04:30am 24.8 23.5 19.8 74 3.2 ESE 26 32 14 17 1011.9 - 0.0
01/04:00am 24.8 23.5 19.8 74 3.2 ESE 26 30 14 16 1011.9 - 0.0
01/03:30am 24.7 23.8 19.8 74 3.2 E 24 30 13 16 1012.0 - 0.0
01/03:00am 24.8 23.5 19.8 74 3.2 E 26 33 14 18 1012.1 1011.9 0.0
01/02:30am 25.0 23.3 19.8 73 3.4 E 28 33 15 18 1012.3 - 0.0
01/02:00am 24.9 23.9 19.7 73 3.4 E 24 32 13 17 1012.6 - 0.0
01/01:30am 25.1 23.6 19.5 71 3.6 E 26 33 14 18 1012.7 - 0.0
01/01:00am 25.0 23.3 19.8 73 3.4 E 28 32 15 17 1013.1 - 0.0
01/12:30am 24.9 23.2 19.7 73 3.4 E 28 33 15 18 1013.3 - 0.0
01/12:00am 24.8 23.3 19.4 72 3.5 E 26 32 14 17 1013.5 1013.3 0.0
 
Date/Time
CST
Temp
°C
App
Temp
°C
Dew
Point
Rel
Hum
%
Delta-T
°C
Wind Press
QNH
hPa
Press
MSL
hPa
Rain
since 9 am
mm
Dir
 
Spd
km/h
Gust
km/h
Spd
kts
Gust
kts
30/11:30pm 24.8 23.3 19.4 72 3.5 E 26 32 14 17 1013.7 - 0.0
30/11:00pm 24.8 23.3 19.4 72 3.5 E 26 32 14 17 1013.9 - 0.0
30/10:30pm 24.8 23.1 19.8 74 3.2 E 28 35 15 19 1013.9 - 0.0
30/10:00pm 25.1 22.7 19.9 73 3.4 E 32 39 17 21 1013.7 - 0.0
30/09:30pm 25.1 23.2 20.1 74 3.2 E 30 35 16 19 1013.6 - 0.0
30/09:00pm 25.1 23.2 20.1 74 3.2 E 30 39 16 21 1013.3 1013.2 0.0
30/08:30pm 25.1 22.7 19.9 73 3.4 E 32 37 17 20 1013.2 - 0.0
30/08:00pm 25.1 23.1 19.9 73 3.4 ESE 30 35 16 19 1012.9 - 0.0
30/07:30pm 25.1 23.0 19.7 72 3.5 ESE 30 37 16 20 1012.6 - 0.0
30/07:00pm 25.1 23.1 19.9 73 3.4 ESE 30 37 16 20 1012.3 - 0.0
30/06:30pm 25.4 23.4 20.0 72 3.5 ESE 30 35 16 19 1011.9 - 0.0
30/06:00pm 25.7 23.5 19.6 69 3.9 ESE 30 35 16 19 1011.8 1011.7 0.0
30/05:30pm 26.3 24.4 19.4 66 4.5 ESE 28 35 15 19 1011.6 - 0.0
30/05:00pm 27.4 25.7 19.7 63 5.0 E 28 33 15 18 1011.5 - 0.0
30/04:30pm 28.3 27.0 20.6 63 5.1 ESE 28 35 15 19 1011.3 - 0.0
30/04:00pm 28.2 26.1 19.7 60 5.5 ESE 30 35 16 19 1011.4 - 0.0
30/03:30pm 29.3 27.1 19.6 56 6.3 E 30 37 16 20 1011.5 - 0.0
30/03:00pm 30.2 29.2 20.4 55 6.5 E 26 33 14 18 1011.7 1011.6 0.0
30/02:30pm 31.0 29.7 20.6 54 6.9 E 28 35 15 19 1011.8 - 0.0
30/02:00pm 30.7 29.1 20.0 52 7.1 E 28 33 15 18 1012.0 - 0.0
30/01:30pm 30.5 29.2 19.8 52 7.0 E 26 33 14 18 1012.3 - 0.0
30/01:00pm 30.8 29.5 19.8 52 7.2 E 26 33 14 18 1012.8 - 0.0
30/12:30pm 31.2 29.9 19.9 51 7.5 E 26 32 14 17 1013.3 - 0.0
30/12:00pm 31.0 29.6 19.7 51 7.4 E 26 33 14 18 1014.0 1013.9 0.0
30/11:30am 30.7 29.5 20.0 52 7.1 E 26 35 14 19 1014.4 - 0.0
30/11:00am 31.0 29.7 20.6 54 6.9 E 28 35 15 19 1014.9 - 0.0
30/10:30am 30.7 29.2 20.3 53 6.9 E 28 35 15 19 1015.3 - 0.0
30/10:00am 29.3 27.5 19.6 56 6.3 E 28 35 15 19 1015.5 - 0.0
30/09:30am 29.0 26.8 19.6 57 6.1 E 30 37 16 20 1015.4 - 0.0
30/09:00am 28.4 24.7 19.1 57 6.0 E 37 44 20 24 1015.4 1015.3 0.0
30/08:30am 27.9 24.5 19.1 58 5.7 E 35 44 19 24 1015.0 - 0.0
30/08:00am 27.4 23.9 19.5 62 5.1 E 37 46 20 25 1014.8 - 0.0
30/07:30am 26.8 23.2 19.4 64 4.8 E 37 50 20 27 1014.4 - 0.0
30/07:00am 26.1 22.8 19.2 65 4.4 E 35 46 19 25 1014.0 - 0.0
30/06:30am 25.9 22.4 19.5 68 4.1 E 37 46 20 25 1013.6 - 0.0
30/06:00am 25.8 22.7 19.7 69 3.9 E 35 44 19 24 1013.3 1013.2 0.0
30/05:30am 25.0 24.4 20.5 76 2.9 E 24 32 13 17 1013.0 - 0.0
30/05:00am 24.8 23.9 19.8 74 3.2 E 24 32 13 17 1012.7 - 0.0
30/04:30am 25.2 24.2 19.6 71 3.6 E 24 32 13 17 1012.5 - 0.0
30/04:00am 25.3 23.6 19.7 71 3.6 E 28 35 15 19 1012.3 - 0.0
30/03:30am 25.2 24.5 20.2 74 3.3 E 24 32 13 17 1012.3 - 0.0
30/03:00am 25.1 24.1 20.4 75 3.1 E 26 33 14 18 1012.2 1012.1 0.0
30/02:30am 25.0 23.7 19.8 73 3.4 E 26 33 14 18 1012.2 - 0.0
30/02:00am 25.1 23.4 19.9 73 3.4 E 28 35 15 19 1012.6 - 0.0
30/01:30am 25.2 23.5 19.8 72 3.5 E 28 35 15 19 1012.7 - 0.0
30/01:00am 25.1 23.8 19.9 73 3.4 E 26 33 14 18 1012.9 - 0.0
30/12:30am 25.1 23.4 19.9 73 3.4 E 28 33 15 18 1013.0 - 0.0
30/12:00am 25.2 23.6 20.0 73 3.4 E 28 35 15 19 1013.3 1013.2 0.0
 
Date/Time
CST
Temp
°C
App
Temp
°C
Dew
Point
Rel
Hum
%
Delta-T
°C
Wind Press
QNH
hPa
Press
MSL
hPa
Rain
since 9 am
mm
Dir
 
Spd
km/h
Gust
km/h
Spd
kts
Gust
kts
29/11:30pm 25.2 23.7 20.2 74 3.3 E 28 33 15 18 1013.5 - 0.0
29/11:00pm 25.2 23.3 20.2 74 3.3 E 30 35 16 19 1013.6 - 0.0
29/10:30pm 25.2 24.1 20.2 74 3.3 E 26 32 14 17 1013.7 - 0.0
29/10:00pm 25.2 23.3 20.2 74 3.3 E 30 35 16 19 1013.6 - 0.0
29/09:30pm 25.3 23.0 20.1 73 3.4 E 32 39 17 21 1013.3 - 0.0
29/09:00pm 25.3 23.3 19.9 72 3.5 E 30 37 16 20 1013.0 1012.9 0.0
29/08:30pm 25.3 22.9 19.9 72 3.5 E 32 39 17 21 1012.8 - 0.0
29/08:00pm 25.3 22.9 19.9 72 3.5 E 32 37 17 20 1012.6 - 0.0
29/07:30pm 25.2 23.1 19.8 72 3.5 E 30 35 16 19 1012.3 - 0.0
29/07:00pm 25.4 22.9 19.8 71 3.6 E 32 39 17 21 1011.9 - 0.0
29/06:30pm 25.5 22.9 19.6 70 3.8 E 32 39 17 21 1011.6 - 0.0
29/06:00pm 26.0 23.3 19.6 68 4.1 E 33 39 18 21 1011.3 1011.2 0.0

Other Formats:

Comma delimited format used in spreadsheet applications
http://www.bom.gov.au/fwo/IDD60801/IDD60801.94147.axf

JavaScript Object Notation format (JSON) in row-major order
http://www.bom.gov.au/fwo/IDD60801/IDD60801.94147.json